createdAt,value
2023-01-29T00:01:54.485Z,99.90
2023-01-29T00:04:29.752Z,99.90
2023-01-29T00:06:58.859Z,99.90
2023-01-29T00:09:35.124Z,99.90
2023-01-29T00:12:09.459Z,99.90
2023-01-29T00:14:37.317Z,99.90
2023-01-29T00:17:05.589Z,99.90
2023-01-29T00:19:35.630Z,99.90
2023-01-29T00:22:03.426Z,99.90
2023-01-29T00:24:37.729Z,99.90
2023-01-29T00:27:07.400Z,99.90
2023-01-29T00:29:35.825Z,99.90
2023-01-29T00:32:04.007Z,99.90
2023-01-29T00:37:21.390Z,99.90
2023-01-29T00:39:53.875Z,99.90
2023-01-29T00:42:40.067Z,99.90
2023-01-29T00:45:09.204Z,99.90
2023-01-29T00:48:01.950Z,99.90
2023-01-29T00:50:32.880Z,99.90
2023-01-29T00:53:01.861Z,99.90
2023-01-29T00:55:32.022Z,99.90
2023-01-29T00:57:59.837Z,99.90
2023-01-29T01:00:28.101Z,99.90
2023-01-29T01:03:12.568Z,99.90
2023-01-29T01:05:48.168Z,99.90
2023-01-29T01:08:34.705Z,99.90
2023-01-29T01:11:09.368Z,99.90
2023-01-29T01:13:43.251Z,99.90
2023-01-29T01:16:16.894Z,99.90
2023-01-29T01:18:53.311Z,99.90
2023-01-29T01:21:23.945Z,99.90
2023-01-29T01:23:57.948Z,99.90
2023-01-29T01:26:29.213Z,99.90
2023-01-29T01:29:05.880Z,99.90
2023-01-29T01:31:33.832Z,99.90
2023-01-29T01:34:04.388Z,99.90
2023-01-29T01:39:47.366Z,99.90
2023-01-29T01:50:21.007Z,99.90
2023-01-29T01:52:56.103Z,99.90
2023-01-29T01:55:32.425Z,99.90
2023-01-29T01:58:12.019Z,99.90
2023-01-29T02:00:39.923Z,99.90
2023-01-29T02:03:28.243Z,99.90
2023-01-29T02:06:17.923Z,99.90
2023-01-29T02:09:15.408Z,99.90
2023-01-29T02:11:47.961Z,99.90
2023-01-29T02:14:25.768Z,99.90
2023-01-29T02:16:59.080Z,99.90
2023-01-29T02:19:56.518Z,99.90
2023-01-29T02:23:10.204Z,99.90
2023-01-29T02:26:21.313Z,99.90
2023-01-29T02:29:27.612Z,99.90
2023-01-29T02:32:18.102Z,99.90
2023-01-29T02:35:33.136Z,99.90
2023-01-29T02:38:38.926Z,99.90
2023-01-29T02:41:31.564Z,99.90
2023-01-29T02:44:14.323Z,99.90
2023-01-29T02:47:14.621Z,99.90
2023-01-29T02:50:14.880Z,99.90
2023-01-29T02:53:13.890Z,99.90
2023-01-29T02:56:23.130Z,99.90
2023-01-29T02:59:24.973Z,99.90
2023-01-29T03:02:05.767Z,99.90
2023-01-29T03:04:46.628Z,99.90
2023-01-29T03:07:41.028Z,99.90
2023-01-29T03:10:35.400Z,99.90
2023-01-29T03:13:19.885Z,99.90
2023-01-29T03:16:01.716Z,99.90
2023-01-29T03:18:47.719Z,99.90
2023-01-29T03:22:03.317Z,99.90
2023-01-29T03:25:14.400Z,99.90
2023-01-29T03:28:27.079Z,99.90
2023-01-29T03:31:27.905Z,99.90
2023-01-29T03:37:11.906Z,99.90
2023-01-29T03:39:51.570Z,99.90
2023-01-29T03:42:25.855Z,99.90
2023-01-29T03:45:20.719Z,99.90
2023-01-29T03:48:32.668Z,99.90
2023-01-29T03:51:25.016Z,99.90
2023-01-29T03:54:42.656Z,99.90
2023-01-29T03:57:46.156Z,99.90
2023-01-29T04:00:31.045Z,99.90
2023-01-29T04:15:19.308Z,99.90
2023-01-29T04:26:17.930Z,99.90
2023-01-29T04:29:41.834Z,99.90
2023-01-29T04:32:34.603Z,99.90
2023-01-29T04:35:13.206Z,99.90
2023-01-29T04:38:27.513Z,99.90
2023-01-29T04:41:24.741Z,99.90
2023-01-29T04:44:26.217Z,99.90
2023-01-29T04:47:39.902Z,99.90
2023-01-29T05:05:18.802Z,99.90
2023-01-29T05:08:51.500Z,99.90
2023-01-29T05:12:12.985Z,99.90
2023-01-29T05:21:47.873Z,99.90
2023-01-29T05:24:24.723Z,99.90
2023-01-29T05:27:23.909Z,99.90
2023-01-29T05:30:09.152Z,99.90
2023-01-29T05:33:12.099Z,99.90
2023-01-29T05:35:54.425Z,99.90
2023-01-29T05:38:37.569Z,99.90
2023-01-29T05:41:25.518Z,99.90
2023-01-29T05:44:03.676Z,99.90
2023-01-29T05:47:11.139Z,99.90
2023-01-29T05:50:54.677Z,99.90
2023-01-29T05:57:19.990Z,99.90
2023-01-29T06:00:24.999Z,99.90
2023-01-29T06:03:21.753Z,99.90
2023-01-29T06:07:11.902Z,99.90
2023-01-29T06:09:59.651Z,99.90
2023-01-29T06:12:49.615Z,99.90
2023-01-29T06:15:38.815Z,99.90
2023-01-29T06:19:07.800Z,99.90
2023-01-29T06:25:42.133Z,99.90
2023-01-29T06:29:07.816Z,99.90
2023-01-29T06:32:34.377Z,99.90
2023-01-29T06:36:23.555Z,99.90
2023-01-29T06:38:54.975Z,99.90
2023-01-29T06:41:25.674Z,99.90
2023-01-29T06:43:53.971Z,99.90
2023-01-29T06:46:24.737Z,99.90
2023-01-29T06:49:00.033Z,99.90
2023-01-29T06:51:32.180Z,99.90
2023-01-29T06:54:15.903Z,99.90
2023-01-29T07:04:33.078Z,99.90
2023-01-29T10:35:16.746Z,99.30
2023-01-29T10:42:43.688Z,97.70
2023-01-29T11:16:03.115Z,96.40
2023-01-29T11:19:37.322Z,94.70
2023-01-29T11:23:01.102Z,95.40
2023-01-29T11:26:22.243Z,95.60
2023-01-29T11:32:25.755Z,94.50
2023-01-29T11:35:32.773Z,94.10
2023-01-29T11:39:24.394Z,93.50
2023-01-29T11:41:38.576Z,93.60
2023-01-29T11:44:23.001Z,94.10
2023-01-29T11:47:15.911Z,94.30
2023-01-29T11:50:07.427Z,93.70
2023-01-29T11:52:48.531Z,93.10
2023-01-29T11:55:23.130Z,91.90
2023-01-29T11:58:19.681Z,89.10
2023-01-29T12:01:00.131Z,77.70
2023-01-29T12:03:57.334Z,73.20
2023-01-29T12:06:41.025Z,74.70
2023-01-29T12:09:27.524Z,77.80
2023-01-29T12:12:21.089Z,79.40
2023-01-29T12:15:31.086Z,76.40
2023-01-29T12:18:23.805Z,70.20
2023-01-29T12:21:26.731Z,62.50
2023-01-29T12:28:58.592Z,57.00
2023-01-29T12:32:01.273Z,55.30
2023-01-29T12:35:48.294Z,59.70
2023-01-29T12:38:37.276Z,61.50
2023-01-29T12:41:25.648Z,56.00
2023-01-29T12:44:50.428Z,53.60
2023-01-29T12:48:24.715Z,52.90
2023-01-29T12:51:43.274Z,52.90
2023-01-29T12:54:17.714Z,50.20
2023-01-29T12:57:09.317Z,46.30
2023-01-29T12:59:53.546Z,46.70
2023-01-29T13:02:52.804Z,45.50
2023-01-29T13:06:02.912Z,45.80
2023-01-29T13:08:41.766Z,44.10
2023-01-29T13:11:27.748Z,43.40
2023-01-29T13:14:08.306Z,43.40
2023-01-29T13:17:36.300Z,44.10
2023-01-29T13:23:39.512Z,51.60
2023-01-29T13:26:07.202Z,54.70
2023-01-29T13:28:34.918Z,57.90
2023-01-29T13:31:37.691Z,60.40
2023-01-29T13:34:23.188Z,63.50
2023-01-29T13:36:58.054Z,65.60
2023-01-29T13:39:44.355Z,66.10
2023-01-29T13:42:37.277Z,69.10
2023-01-29T13:45:09.580Z,70.20
2023-01-29T13:47:40.305Z,72.90
2023-01-29T13:50:33.185Z,73.60
2023-01-29T13:53:19.992Z,72.40
2023-01-29T13:55:48.141Z,72.90
2023-01-29T13:58:31.699Z,73.80
2023-01-29T14:01:04.968Z,74.60
2023-01-29T14:04:03.788Z,75.30
2023-01-29T14:06:46.285Z,76.60
2023-01-29T14:09:38.136Z,78.20
2023-01-29T14:12:25.842Z,78.70
2023-01-29T14:14:59.232Z,79.60
2023-01-29T14:17:27.602Z,80.70
2023-01-29T14:20:05.220Z,80.90
2023-01-29T14:22:34.798Z,81.40
2023-01-29T14:25:12.370Z,82.60
2023-01-29T14:27:56.548Z,81.60
2023-01-29T14:30:35.963Z,82.50
2023-01-29T14:33:07.043Z,82.40
2023-01-29T14:35:34.936Z,81.90
2023-01-29T14:38:07.901Z,78.40
2023-01-29T14:40:44.605Z,77.50
2023-01-29T14:43:22.367Z,75.60
2023-01-29T14:45:50.218Z,75.60
2023-01-29T14:48:55.359Z,75.90
2023-01-29T14:51:28.746Z,76.20
2023-01-29T14:54:28.169Z,76.10
2023-01-29T14:57:10.611Z,75.30
2023-01-29T15:00:09.979Z,75.00
2023-01-29T15:03:03.019Z,74.50
2023-01-29T15:05:42.313Z,76.20
2023-01-29T15:08:30.066Z,77.10
2023-01-29T15:11:21.620Z,77.80
2023-01-29T15:14:30.155Z,79.70
2023-01-29T15:17:12.723Z,80.90
2023-01-29T15:19:46.195Z,83.00
2023-01-29T15:22:36.256Z,84.00
2023-01-29T15:25:14.275Z,84.90
2023-01-29T15:27:44.172Z,86.20
2023-01-29T15:30:23.015Z,87.50
2023-01-29T15:32:50.852Z,87.60
2023-01-29T15:35:36.341Z,87.90
2023-01-29T15:38:20.609Z,89.60
2023-01-29T15:41:02.297Z,88.90
2023-01-29T15:43:40.407Z,89.30
2023-01-29T15:46:17.076Z,89.80
2023-01-29T15:49:06.748Z,89.80
2023-01-29T15:52:03.624Z,90.40
2023-01-29T16:09:52.810Z,93.80
2023-01-29T16:12:24.153Z,94.40
2023-01-29T16:14:52.472Z,95.00
2023-01-29T16:17:38.540Z,95.70
2023-01-29T16:20:20.568Z,95.90
2023-01-29T16:22:48.254Z,95.80
2023-01-29T16:25:22.208Z,96.40
2023-01-29T16:27:56.081Z,96.60
2023-01-29T16:30:33.270Z,97.00
2023-01-29T16:33:29.166Z,97.20
2023-01-29T16:36:05.924Z,97.80
2023-01-29T16:38:52.368Z,98.10
2023-01-29T19:55:15.274Z,99.90
2023-01-29T19:57:49.848Z,99.90
2023-01-29T20:00:27.920Z,99.90
2023-01-29T20:06:28.028Z,99.90
2023-01-29T20:08:56.561Z,99.90
2023-01-29T20:11:25.041Z,99.90
2023-01-29T20:13:55.369Z,99.90
2023-01-29T20:16:27.138Z,99.90
2023-01-29T20:18:55.637Z,99.90
2023-01-29T20:21:46.098Z,99.90
2023-01-29T20:24:14.593Z,99.90
2023-01-29T20:27:09.687Z,99.90
2023-01-29T20:29:37.014Z,99.90
2023-01-29T20:32:05.607Z,99.90
2023-01-29T20:34:33.169Z,99.90
2023-01-29T20:37:00.924Z,99.90
2023-01-29T20:39:29.181Z,99.90
2023-01-29T20:41:59.297Z,99.90
2023-01-29T20:44:27.192Z,99.90
2023-01-29T20:46:55.047Z,99.90
2023-01-29T20:49:23.794Z,99.90
2023-01-29T20:51:51.944Z,99.90
2023-01-29T20:54:23.077Z,99.90
2023-01-29T20:56:51.221Z,99.90
2023-01-29T20:59:19.489Z,99.90
2023-01-29T21:01:47.139Z,99.90
2023-01-29T21:04:14.766Z,99.90
2023-01-29T21:06:42.512Z,99.90
2023-01-29T21:09:11.107Z,99.90
2023-01-29T21:11:47.571Z,99.90
2023-01-29T21:15:12.260Z,99.90
2023-01-29T21:18:13.880Z,99.90
2023-01-29T21:21:00.513Z,99.90
2023-01-29T21:23:28.484Z,99.90
2023-01-29T21:26:32.352Z,99.90
2023-01-29T21:29:01.502Z,99.90
2023-01-29T21:35:10.098Z,99.90
2023-01-29T21:37:45.824Z,99.90
2023-01-29T21:40:17.087Z,99.90
2023-01-29T21:43:03.333Z,99.90
2023-01-29T21:45:35.894Z,99.90
2023-01-29T21:48:06.151Z,99.90
2023-01-29T21:50:44.217Z,99.90
2023-01-29T23:08:42.263Z,99.90
